Time;durP1;ratioP1;P1;durP2;ratioP2;P2;SDS_P1;SDS_P2;PMS_P1;PMS_P2;Temp;Humidity;BMP_temperature;BMP_pressure;BME280_temperature;BME280_humidity;BME280_pressure;Samples;Min_cycle;Max_cycle;Signal;HPM_P1;HPM_P2
2022/09/23 00:01:08;;;;;;;12.80;7.22;;;;;;;13.61;53.71;101726.75;4873798;28;123929;-68
2022/09/23 00:03:40;;;;;;;9.13;7.28;;;;;;;13.58;53.79;101732.19;4886213;28;119512;-68
2022/09/23 00:06:10;;;;;;;9.50;7.65;;;;;;;13.57;53.89;101725.16;4865630;28;118989;-68
2022/09/23 00:08:39;;;;;;;10.23;7.80;;;;;;;13.56;53.97;101731.41;4871576;28;124282;-67
2022/09/23 00:11:12;;;;;;;11.18;7.05;;;;;;;13.54;53.91;101730.59;4868112;28;124499;-67
2022/09/23 00:13:41;;;;;;;10.57;7.25;;;;;;;13.54;53.84;101725.28;4884885;28;117985;-67
2022/09/23 00:16:11;;;;;;;9.93;7.40;;;;;;;13.52;53.93;101729.81;4882967;28;118194;-67
2022/09/23 00:18:40;;;;;;;12.68;7.82;;;;;;;13.50;53.99;101723.69;4871471;28;123400;-67
2022/09/23 00:21:10;;;;;;;10.50;8.07;;;;;;;13.47;54.29;101729.13;4869154;28;123763;-67
2022/09/23 00:23:39;;;;;;;11.77;7.72;;;;;;;13.46;54.07;101727.41;4870718;28;119744;-68
2022/09/23 00:26:09;;;;;;;13.27;8.30;;;;;;;13.43;54.25;101729.28;4869142;28;119321;-67
2022/09/23 00:28:37;;;;;;;11.55;8.55;;;;;;;13.41;54.29;101720.50;4872226;28;123882;-67
2022/09/23 00:31:07;;;;;;;10.95;7.97;;;;;;;13.40;54.43;101724.09;4877280;28;122733;-68
2022/09/23 00:33:34;;;;;;;14.07;8.60;;;;;;;13.40;54.42;101718.75;4871628;28;120766;-68
2022/09/23 00:36:06;;;;;;;12.52;8.75;;;;;;;13.41;54.71;101715.19;4885394;28;119686;-68
2022/09/23 00:38:33;;;;;;;13.68;8.80;;;;;;;13.42;54.53;101716.91;4870751;28;124570;-67
2022/09/23 00:41:01;;;;;;;13.02;8.85;;;;;;;13.42;54.65;101714.25;4870791;28;123975;-67
2022/09/23 00:43:39;;;;;;;13.27;8.32;;;;;;;13.42;54.60;101718.69;4868664;28;119781;-67
2022/09/23 00:46:10;;;;;;;13.00;7.93;;;;;;;13.41;54.58;101715.19;4867573;28;119596;-67
2022/09/23 00:48:41;;;;;;;10.27;7.43;;;;;;;13.40;54.58;101713.44;4870547;28;124050;-67
2022/09/23 00:51:13;;;;;;;11.68;8.70;;;;;;;13.40;54.71;101713.44;4865887;28;123793;-67
2022/09/23 00:53:40;;;;;;;11.50;8.65;;;;;;;13.40;54.71;101708.13;4868350;28;119067;-67
2022/09/23 00:56:10;;;;;;;9.45;7.70;;;;;;;13.40;54.66;101708.13;4867039;28;118845;-67
2022/09/23 00:58:40;;;;;;;12.80;7.85;;;;;;;13.39;54.47;101701.09;4870265;28;124348;-68
2022/09/23 01:01:07;;;;;;;12.07;7.93;;;;;;;13.38;54.58;101709.13;4867669;28;125068;-68
2022/09/23 01:03:34;;;;;;;10.80;7.85;;;;;;;13.37;54.75;101705.59;4870619;28;119196;-67
2022/09/23 01:06:01;;;;;;;13.30;8.25;;;;;;;13.36;54.68;101706.53;4871177;28;119030;-67
2022/09/23 01:08:28;;;;;;;11.65;8.00;;;;;;;13.35;54.84;101698.59;4872086;28;124432;-67
2022/09/23 01:11:08;;;;;;;12.35;8.20;;;;;;;13.33;54.62;101696.00;4868569;28;123382;-68
2022/09/23 01:13:45;;;;;;;11.80;8.50;;;;;;;13.33;54.85;101701.31;4866890;28;119903;-67
2022/09/23 01:16:25;;;;;;;10.75;8.23;;;;;;;13.34;54.79;101696.88;4882875;28;119083;-68
2022/09/23 01:18:58;;;;;;;11.52;8.45;;;;;;;13.34;54.80;101692.44;4866377;28;123912;-68
2022/09/23 01:21:42;;;;;;;10.75;8.55;;;;;;;13.32;54.92;101686.31;4867311;28;123556;-67
2022/09/23 01:24:42;;;;;;;14.10;8.38;;;;;;;13.32;54.77;101688.97;5013089;28;96608;-62
2022/09/23 01:27:18;;;;;;;10.57;8.25;;;;;;;13.33;54.73;101692.47;5006781;28;107127;-62
2022/09/23 01:30:20;;;;;;;11.73;8.68;;;;;;;13.31;54.65;101684.56;5008073;28;124091;-60
2022/09/23 01:33:13;;;;;;;9.70;7.78;;;;;;;13.31;54.60;101689.88;5005044;28;124000;-60
2022/09/23 01:35:49;;;;;;;11.32;8.13;;;;;;;13.30;54.66;101690.84;5007864;28;107861;-61
2022/09/23 01:38:30;;;;;;;11.25;7.88;;;;;;;13.30;54.81;101688.16;5010495;28;107378;-61
2022/09/23 01:41:15;;;;;;;12.40;8.48;;;;;;;13.27;54.75;101685.59;5009351;28;123235;-61
2022/09/23 01:43:58;;;;;;;12.93;8.30;;;;;;;13.26;54.65;101683.88;5008764;28;123751;-61
2022/09/23 01:46:37;;;;;;;12.32;8.27;;;;;;;13.24;54.56;101680.41;5009441;28;107786;-61
2022/09/23 01:49:11;;;;;;;11.13;7.60;;;;;;;13.21;55.08;101677.88;5010306;28;107452;-61
2022/09/23 01:51:45;;;;;;;11.38;7.65;;;;;;;13.18;54.75;101676.19;5010063;28;125020;-61
2022/09/23 01:54:38;;;;;;;12.75;8.15;;;;;;;13.17;54.86;101673.63;5005381;28;123790;-61
2022/09/23 01:57:18;;;;;;;10.57;7.53;;;;;;;13.14;54.48;101679.06;5007074;28;107492;-61
2022/09/23 01:59:50;;;;;;;10.32;7.50;;;;;;;13.11;54.68;101673.88;5007858;28;107495;-61
2022/09/23 02:02:27;;;;;;;10.95;7.65;;;;;;;13.08;54.68;101674.03;5004837;28;124736;-61
2022/09/23 02:05:06;;;;;;;10.68;8.18;;;;;;;13.05;54.54;101675.88;5004644;28;123931;-60
2022/09/23 02:07:38;;;;;;;11.98;7.60;;;;;;;13.02;54.33;101676.00;5003534;28;107598;-60
2022/09/23 02:10:14;;;;;;;12.93;7.60;;;;;;;12.99;54.74;101670.81;5009449;28;107379;-60
2022/09/23 02:12:44;;;;;;;;;;;;;;;12.94;54.31;101667.50;5008351;28;124272;-60
2022/09/23 02:15:17;;;;;;;10.35;7.82;;;;;;;12.91;54.50;101667.59;5004544;28;124980;-61
2022/09/23 02:17:50;;;;;;;11.60;7.72;;;;;;;12.89;54.82;101669.47;5006918;28;107573;-60
2022/09/23 02:20:24;;;;;;;12.40;7.78;;;;;;;12.87;54.59;101671.31;5006035;28;107333;-60
2022/09/23 02:22:51;;;;;;;10.20;8.10;;;;;;;12.85;54.67;101670.53;5005913;28;125140;-60
2022/09/23 02:25:24;;;;;;;11.82;7.82;;;;;;;12.83;54.80;101661.75;4982518;28;122596;-60
2022/09/23 02:28:06;;;;;;;9.63;7.70;;;;;;;12.81;54.91;101660.97;5004492;28;107804;-60
2022/09/23 02:30:45;;;;;;;11.88;8.48;;;;;;;12.80;55.02;101664.53;5006538;28;106390;-60
2022/09/23 02:33:37;;;;;;;12.30;7.90;;;;;;;12.80;54.99;101664.53;5003481;28;123893;-61
2022/09/23 02:36:12;;;;;;;11.23;7.93;;;;;;;12.78;55.01;101655.75;4993933;28;123950;-60
2022/09/23 02:38:50;;;;;;;10.50;8.10;;;;;;;12.77;55.06;101664.63;4994939;28;108099;-62
2022/09/23 02:41:27;;;;;;;14.55;8.40;;;;;;;12.76;55.28;101662.94;4993247;28;107748;-60
2022/09/23 02:44:06;;;;;;;10.57;8.43;;;;;;;12.77;55.35;101659.31;4993119;28;124028;-61
2022/09/23 02:46:34;;;;;;;9.35;8.00;;;;;;;12.76;55.09;101652.28;4991501;28;123876;-61
2022/09/23 02:49:11;;;;;;;11.77;8.25;;;;;;;12.75;55.42;101651.44;4993111;28;107693;-61
2022/09/23 02:51:39;;;;;;;12.95;8.50;;;;;;;12.75;55.30;101645.22;4992907;28;107407;-61
2022/09/23 02:54:09;;;;;;;12.20;8.93;;;;;;;12.74;55.44;101649.69;4992540;28;124972;-61
2022/09/23 02:56:36;;;;;;;12.70;8.65;;;;;;;12.74;55.54;101646.19;4993217;28;124305;-61
2022/09/23 02:59:05;;;;;;;12.73;8.43;;;;;;;12.73;55.50;101642.63;4992826;28;107499;-61
2022/09/23 03:02:12;;;;;;;12.52;8.23;;;;;;;12.73;55.58;101636.47;4994927;28;107622;-61
2022/09/23 03:05:04;;;;;;;10.88;8.07;;;;;;;12.71;55.63;101630.34;4989894;28;124459;-61
2022/09/23 03:08:09;;;;;;;12.02;8.80;;;;;;;12.69;55.44;101627.75;4999567;28;123084;-61
2022/09/23 03:10:51;;;;;;;17.80;8.57;;;;;;;12.66;55.46;101628.75;4994197;28;107896;-61
2022/09/23 03:13:41;;;;;;;13.02;8.10;;;;;;;12.65;55.46;101624.34;4994183;28;107405;-61
2022/09/23 03:16:27;;;;;;;12.15;8.20;;;;;;;12.66;55.52;101622.59;4991736;28;123198;-61
2022/09/23 03:19:22;;;;;;;13.38;8.07;;;;;;;12.63;55.41;101615.56;4988051;28;124445;-60
2022/09/23 03:22:02;;;;;;;14.65;8.63;;;;;;;12.63;55.51;101612.06;4993331;28;106483;-61
2022/09/23 03:24:33;;;;;;;11.18;8.52;;;;;;;12.63;55.29;101615.56;4989370;28;107218;-61
2022/09/23 03:27:04;;;;;;;13.77;8.65;;;;;;;12.60;55.51;101623.69;4993002;28;124019;-61
2022/09/23 03:29:35;;;;;;;17.58;8.48;;;;;;;12.60;55.42;101615.72;4990216;28;124495;-61
2022/09/23 03:32:06;;;;;;;13.70;9.02;;;;;;;12.59;55.51;101613.97;4992860;28;107702;-61
2022/09/23 03:34:37;;;;;;;12.38;8.38;;;;;;;12.58;55.67;101609.59;4993702;28;107476;-61
2022/09/23 03:37:20;;;;;;;11.85;8.32;;;;;;;12.56;55.46;101603.47;4990560;28;124636;-61
2022/09/23 03:39:52;;;;;;;12.82;7.93;;;;;;;12.54;55.50;101605.31;4992689;28;124273;-61
2022/09/23 03:42:23;;;;;;;12.70;7.88;;;;;;;12.53;55.54;101608.94;4993522;28;107703;-61
2022/09/23 03:44:53;;;;;;;16.33;8.88;;;;;;;12.52;55.60;101601.88;4990310;28;107506;-61
2022/09/23 03:47:20;;;;;;;16.83;8.68;;;;;;;12.51;55.39;101605.47;4990322;28;124068;-61
2022/09/23 03:49:48;;;;;;;11.43;8.63;;;;;;;12.49;55.51;101602.00;4992251;28;123930;-61
2022/09/23 03:52:17;;;;;;;13.15;8.15;;;;;;;12.45;55.61;101595.06;4991909;28;107454;-61
2022/09/23 03:54:45;;;;;;;14.52;8.25;;;;;;;12.43;55.65;101592.50;4991400;28;107241;-61
2022/09/23 03:57:13;;;;;;;13.98;8.60;;;;;;;12.40;55.32;101594.41;4992495;28;124050;-61
2022/09/23 03:59:40;;;;;;;13.55;7.97;;;;;;;12.38;55.49;101594.47;4993275;28;124329;-61
2022/09/23 04:02:08;;;;;;;15.80;8.32;;;;;;;12.36;55.50;101590.16;4992524;28;108329;-61
2022/09/23 04:04:37;;;;;;;12.02;8.40;;;;;;;12.34;55.51;101594.63;4989280;28;107147;-61
2022/09/23 04:07:04;;;;;;;10.32;7.88;;;;;;;12.32;55.76;101593.84;4988358;28;124209;-61
2022/09/23 04:09:31;;;;;;;14.68;7.82;;;;;;;12.29;55.67;101589.53;4991535;28;124366;-63
2022/09/23 04:11:59;;;;;;;14.45;8.05;;;;;;;12.27;55.87;101597.53;4990352;28;107500;-61
2022/09/23 04:14:26;;;;;;;11.10;7.97;;;;;;;12.24;55.90;101592.38;4990337;28;107578;-61
2022/09/23 04:16:53;;;;;;;17.33;8.82;;;;;;;12.21;55.87;101589.84;4993558;28;124397;-60
2022/09/23 04:19:21;;;;;;;15.82;8.25;;;;;;;12.18;56.07;101587.28;4989249;28;123914;-61
2022/09/23 04:21:48;;;;;;;13.65;8.85;;;;;;;12.17;55.91;101590.88;4988709;28;107610;-60
2022/09/23 04:24:16;;;;;;;13.40;7.55;;;;;;;12.16;55.88;101594.47;4990701;28;108092;-61
2022/09/23 04:26:43;;;;;;;12.25;7.97;;;;;;;12.13;56.06;101593.72;4990175;28;124418;-61
2022/09/23 04:29:10;;;;;;;13.38;8.15;;;;;;;12.12;56.08;101602.63;4991595;28;124356;-61
2022/09/23 04:31:38;;;;;;;9.98;8.23;;;;;;;12.10;56.08;101602.66;4993968;28;107664;-61
2022/09/23 04:34:05;;;;;;;15.50;8.45;;;;;;;12.07;56.16;101598.34;4992014;28;108471;-61
2022/09/23 04:36:34;;;;;;;14.25;8.75;;;;;;;12.07;56.36;101600.13;4991042;28;123949;-61
2022/09/23 04:39:02;;;;;;;15.90;8.38;;;;;;;12.06;56.32;101593.09;4992369;28;124689;-61
2022/09/23 04:41:29;;;;;;;14.48;8.30;;;;;;;12.06;56.12;101587.78;4992389;28;106597;-61
2022/09/23 04:43:56;;;;;;;13.15;7.75;;;;;;;12.05;56.37;101591.34;4992268;28;107070;-62
2022/09/23 04:46:23;;;;;;;13.50;7.88;;;;;;;12.03;56.14;101585.25;4991117;28;124639;-62
2022/09/23 04:48:50;;;;;;;15.77;8.02;;;;;;;12.04;56.13;101581.69;4989165;28;124293;-61
2022/09/23 04:51:20;;;;;;;14.27;8.15;;;;;;;12.03;56.20;101582.59;4992311;28;107445;-62
2022/09/23 04:53:49;;;;;;;12.25;8.00;;;;;;;12.02;56.05;101586.19;4992062;28;107088;-61
2022/09/23 04:56:22;;;;;;;12.60;7.72;;;;;;;11.99;56.26;101586.28;4992425;28;123800;-61
2022/09/23 04:58:49;;;;;;;11.85;8.00;;;;;;;11.99;56.06;101581.00;4990852;28;122165;-61
2022/09/23 05:01:18;;;;;;;13.00;7.50;;;;;;;11.98;56.39;101585.44;4992485;28;107299;-61
2022/09/23 05:03:45;;;;;;;10.90;7.60;;;;;;;11.97;56.27;101582.84;4992670;28;107598;-61
2022/09/23 05:06:13;;;;;;;12.85;7.93;;;;;;;11.96;56.16;101586.41;4990027;28;124759;-61
2022/09/23 05:08:45;;;;;;;15.38;7.75;;;;;;;11.95;56.42;101584.69;4989525;28;124855;-61
2022/09/23 05:11:12;;;;;;;13.98;7.97;;;;;;;11.94;56.19;101583.84;4989670;28;107780;-61
2022/09/23 05:13:39;;;;;;;16.08;7.95;;;;;;;11.95;56.40;101595.31;4990565;28;107329;-61
2022/09/23 05:16:10;;;;;;;12.27;7.68;;;;;;;11.94;56.39;101594.47;4990911;28;124031;-61
2022/09/23 05:18:40;;;;;;;17.17;7.70;;;;;;;11.95;56.72;101590.84;4993784;28;124602;-62
2022/09/23 05:21:14;;;;;;;16.42;8.40;;;;;;;11.96;56.41;101586.41;4992443;28;107520;-62
2022/09/23 05:23:46;;;;;;;13.50;8.18;;;;;;;11.95;56.61;101590.00;4989173;28;107324;-62
2022/09/23 05:26:14;;;;;;;14.15;7.95;;;;;;;11.96;56.64;101581.09;4989068;28;124865;-62
2022/09/23 05:28:41;;;;;;;9.68;7.57;;;;;;;11.97;56.67;101588.16;4990191;28;124364;-62
2022/09/23 05:31:14;;;;;;;11.07;7.20;;;;;;;11.96;56.83;101575.78;4992336;28;107509;-62
2022/09/23 05:33:50;;;;;;;10.45;7.07;;;;;;;11.96;56.55;101576.66;4991434;28;108003;-63
2022/09/23 05:36:20;;;;;;;13.80;7.80;;;;;;;11.96;56.48;101586.41;4990192;28;123563;-62
2022/09/23 05:38:50;;;;;;;11.77;7.57;;;;;;;11.94;56.61;101593.56;4991104;28;123042;-62
2022/09/23 05:41:19;;;;;;;11.35;7.60;;;;;;;11.94;56.66;101593.56;4992148;28;108961;-62
2022/09/23 05:43:46;;;;;;;10.18;7.35;;;;;;;11.95;56.63;101605.94;4992115;28;109293;-61
2022/09/23 05:46:20;;;;;;;12.20;7.53;;;;;;;11.95;57.06;101600.63;4989196;28;124315;-62
2022/09/23 05:48:48;;;;;;;11.23;7.63;;;;;;;11.97;56.82;101596.13;4986083;28;123773;-62
2022/09/23 05:51:20;;;;;;;10.25;7.20;;;;;;;11.98;57.07;101601.38;4990164;28;111025;-62
2022/09/23 05:53:49;;;;;;;13.45;7.90;;;;;;;12.00;57.08;101601.31;4982558;28;108703;-61
2022/09/23 05:56:19;;;;;;;11.15;7.18;;;;;;;12.02;57.17;101597.66;4988679;28;123953;-62
2022/09/23 05:58:51;;;;;;;11.95;8.20;;;;;;;12.04;57.20;101601.13;4989678;28;124971;-62
2022/09/23 06:01:23;;;;;;;13.05;8.23;;;;;;;12.08;57.41;101601.88;4989716;28;110195;-62
2022/09/23 06:03:52;;;;;;;13.15;7.22;;;;;;;12.12;57.27;101614.09;4991102;28;108170;-62
2022/09/23 06:06:24;;;;;;;14.68;8.77;;;;;;;12.14;57.49;101606.94;4988220;28;123883;-63
2022/09/23 06:08:52;;;;;;;14.93;8.27;;;;;;;12.18;57.40;101597.91;4987627;28;122939;-62
2022/09/23 06:11:20;;;;;;;20.33;8.40;;;;;;;12.21;57.67;101603.13;4992101;28;109740;-62
2022/09/23 06:13:48;;;;;;;14.30;8.75;;;;;;;12.26;57.75;101598.50;4992200;28;108280;-62
2022/09/23 06:16:15;;;;;;;12.15;8.00;;;;;;;12.30;57.45;101601.00;4988252;28;122860;-62
2022/09/23 06:18:44;;;;;;;12.57;8.55;;;;;;;12.34;57.72;101594.63;4993250;28;123701;-62
2022/09/23 06:21:16;;;;;;;18.27;9.30;;;;;;;12.40;57.67;101594.41;4995808;28;109021;-61
2022/09/23 06:23:44;;;;;;;13.50;8.88;;;;;;;12.44;57.56;101598.66;4991292;28;109499;-61
2022/09/23 06:26:13;;;;;;;16.13;8.27;;;;;;;12.45;57.70;101595.06;4989149;28;123892;-61
2022/09/23 06:28:42;;;;;;;12.18;8.00;;;;;;;12.47;57.81;101593.25;4990970;28;124280;-62
2022/09/23 06:31:14;;;;;;;11.98;8.63;;;;;;;12.51;57.77;101594.84;4995372;28;109321;-62
2022/09/23 06:33:43;;;;;;;13.63;8.43;;;;;;;12.56;57.96;101598.16;4989924;28;109048;-62
2022/09/23 06:36:13;;;;;;;12.30;8.43;;;;;;;12.61;57.96;101596.19;4990484;28;123653;-62
2022/09/23 06:38:56;;;;;;;15.00;8.65;;;;;;;12.65;57.92;101589.81;4991054;28;124000;-61
2022/09/23 06:41:23;;;;;;;15.32;8.38;;;;;;;12.69;57.98;101582.56;4982793;28;112096;-61
2022/09/23 06:43:53;;;;;;;13.23;8.50;;;;;;;12.75;57.79;101592.97;4981801;28;109361;-61
2022/09/23 06:46:20;;;;;;;12.98;8.15;;;;;;;12.81;57.90;101597.16;4982483;28;123493;-61
2022/09/23 06:48:47;;;;;;;13.20;8.52;;;;;;;12.84;57.90;101594.34;4983697;28;123804;-61
2022/09/23 06:51:18;;;;;;;14.40;9.05;;;;;;;12.89;57.87;101589.72;4985333;28;109031;-61
2022/09/23 06:53:47;;;;;;;13.80;8.43;;;;;;;12.93;57.68;101596.63;4981317;28;109144;-61
2022/09/23 06:56:16;;;;;;;16.88;8.48;;;;;;;12.98;57.83;101589.31;4978318;28;124196;-61
2022/09/23 06:58:43;;;;;;;16.52;8.80;;;;;;;13.04;57.62;101591.69;4981601;28;122925;-61
2022/09/23 07:01:14;;;;;;;12.07;8.50;;;;;;;13.11;57.77;101594.97;4989729;28;109252;-60
2022/09/23 07:03:43;;;;;;;12.43;8.90;;;;;;;13.18;57.67;101584.91;4982296;28;107958;-60
2022/09/23 07:06:10;;;;;;;12.80;8.23;;;;;;;13.25;57.98;101579.25;4984701;28;123755;-61
2022/09/23 07:08:41;;;;;;;14.35;8.73;;;;;;;13.31;57.70;101580.81;4977499;28;124303;-60
2022/09/23 07:11:12;;;;;;;13.23;7.60;;;;;;;13.39;57.59;101589.31;4988359;28;109061;-60
2022/09/23 07:13:41;;;;;;;17.27;8.80;;;;;;;13.44;57.53;101592.63;4974969;28;108798;-60
2022/09/23 07:16:09;;;;;;;14.15;8.90;;;;;;;13.49;57.35;101588.91;4979426;28;124705;-60
2022/09/23 07:18:37;;;;;;;11.93;8.75;;;;;;;13.54;57.24;101585.13;4981495;28;124258;-61
2022/09/23 07:21:13;;;;;;;14.43;8.77;;;;;;;13.58;57.35;101588.47;4985652;28;109478;-61
2022/09/23 07:23:49;;;;;;;15.30;8.80;;;;;;;13.62;57.10;101584.75;4988540;28;109053;-60
2022/09/23 07:26:18;;;;;;;16.67;8.65;;;;;;;13.66;57.29;101591.66;4992117;28;125362;-61
2022/09/23 07:28:45;;;;;;;13.70;8.93;;;;;;;13.72;57.17;101585.19;4985348;28;123693;-61
2022/09/23 07:31:14;;;;;;;13.82;8.68;;;;;;;13.79;57.23;101584.84;4986142;28;109278;-61
2022/09/23 07:33:48;;;;;;;13.30;8.48;;;;;;;13.87;57.17;101588.94;4982211;28;109726;-61
2022/09/23 07:36:17;;;;;;;14.07;8.70;;;;;;;13.95;57.31;101592.09;4992817;28;122977;-61
2022/09/23 07:38:46;;;;;;;13.05;8.95;;;;;;;14.05;57.34;101588.03;4992274;28;123985;-61
2022/09/23 07:41:17;;;;;;;12.85;8.45;;;;;;;14.15;57.46;101584.03;4994830;28;109784;-61
2022/09/23 07:43:46;;;;;;;9.68;8.07;;;;;;;14.28;57.45;101586.06;4992829;28;109287;-62
2022/09/23 07:46:16;;;;;;;10.55;8.52;;;;;;;14.38;57.56;101582.03;4991211;28;124622;-61
2022/09/23 07:48:45;;;;;;;10.45;7.40;;;;;;;14.51;57.55;101579.63;4994101;28;124643;-61
2022/09/23 07:51:17;;;;;;;10.85;7.50;;;;;;;14.63;57.36;101578.19;4994443;28;109522;-61
2022/09/23 07:53:50;;;;;;;11.73;7.53;;;;;;;14.73;57.03;101568.75;4993984;28;107934;-61
2022/09/23 07:56:18;;;;;;;10.98;7.03;;;;;;;14.81;56.79;101574.59;4988638;28;124574;-61
2022/09/23 07:58:58;;;;;;;11.50;7.03;;;;;;;14.88;56.66;101577.78;4980674;28;123520;-62
2022/09/23 08:01:31;;;;;;;8.98;6.75;;;;;;;14.96;56.65;101576.47;4993661;28;109903;-62
2022/09/23 08:04:20;;;;;;;7.38;6.53;;;;;;;15.07;56.30;101577.69;4994974;28;109417;-62
2022/09/23 08:06:53;;;;;;;9.02;7.00;;;;;;;15.17;56.59;101578.97;4992095;28;124043;-61
2022/09/23 08:09:23;;;;;;;10.38;7.03;;;;;;;15.28;56.64;101576.59;4991562;28;124436;-62
2022/09/23 08:11:51;;;;;;;10.90;7.47;;;;;;;15.43;56.61;101579.41;4992119;28;109554;-61
2022/09/23 08:14:18;;;;;;;8.02;6.80;;;;;;;15.56;56.53;101585.78;4994367;28;107064;-62
2022/09/23 08:16:46;;;;;;;8.55;6.55;;;;;;;15.71;56.28;101584.09;5004963;28;123806;-61
2022/09/23 08:19:14;;;;;;;9.45;6.85;;;;;;;15.83;56.05;101593.28;4991580;28;123944;-61
2022/09/23 08:21:42;;;;;;;8.45;6.80;;;;;;;15.95;55.91;101592.56;4994236;28;110274;-61
2022/09/23 08:24:18;;;;;;;8.23;6.60;;;;;;;16.07;56.07;101586.56;4995156;28;109819;-62
2022/09/23 08:26:46;;;;;;;;;;;;;;;16.20;55.87;101591.19;4991158;28;124934;-62
2022/09/23 08:29:15;;;;;;;8.77;6.53;;;;;;;16.34;55.67;101588.59;4994589;28;125084;-61
2022/09/23 08:31:42;;;;;;;8.23;6.28;;;;;;;16.48;55.39;101591.34;4994194;28;109244;-62
2022/09/23 08:34:10;;;;;;;8.95;6.68;;;;;;;16.59;55.37;101592.53;4993510;28;108416;-60
2022/09/23 08:36:37;;;;;;;9.30;6.40;;;;;;;16.70;55.12;101595.44;4991054;28;123910;-59
2022/09/23 08:39:05;;;;;;;7.32;6.03;;;;;;;16.79;54.88;101594.91;4991687;28;124064;-60
2022/09/23 08:41:51;;;;;;;7.47;6.18;;;;;;;16.89;54.53;101593.41;4994045;28;108947;-60
2022/09/23 08:44:45;;;;;;;8.60;6.22;;;;;;;16.99;54.38;101590.19;4991757;28;108895;-60
2022/09/23 08:47:30;;;;;;;8.70;6.68;;;;;;;17.09;54.14;101592.22;4993063;28;124653;-60
2022/09/23 08:50:33;;;;;;;8.70;5.82;;;;;;;17.15;53.46;101590.16;4993840;28;124695;-60
2022/09/23 08:53:08;;;;;;;9.02;5.47;;;;;;;17.20;53.33;101594.25;4994659;28;108317;-60
2022/09/23 08:55:40;;;;;;;8.57;5.80;;;;;;;17.25;53.39;101592.19;4990850;28;109313;-60
2022/09/23 08:58:20;;;;;;;7.35;6.10;;;;;;;17.34;53.26;101589.88;4989739;28;124135;-60
2022/09/23 09:01:05;;;;;;;8.35;6.10;;;;;;;17.41;52.80;101585.88;4991898;28;124939;-60
2022/09/23 09:03:35;;;;;;;8.65;5.68;;;;;;;17.49;52.93;101580.88;4989685;28;108254;-60
2022/09/23 09:06:04;;;;;;;8.77;6.20;;;;;;;17.56;52.89;101587.59;4992906;28;109302;-60
2022/09/23 09:08:36;;;;;;;7.43;6.20;;;;;;;17.65;52.88;101581.66;4990712;28;123887;-60
2022/09/23 09:11:05;;;;;;;7.78;6.47;;;;;;;17.76;52.79;101580.09;4991098;28;124501;-60
2022/09/23 09:13:41;;;;;;;9.43;6.35;;;;;;;17.86;52.36;101581.28;4984751;28;109909;-60
2022/09/23 09:16:17;;;;;;;9.32;6.70;;;;;;;17.96;52.53;101577.03;4986371;28;110576;-60
2022/09/23 09:19:17;;;;;;;8.75;6.57;;;;;;;18.06;52.54;101583.53;4985727;28;122989;-60
2022/09/23 09:21:48;;;;;;;10.75;6.72;;;;;;;18.18;52.39;101575.66;4983417;28;124457;-60
2022/09/23 09:24:34;;;;;;;9.60;6.50;;;;;;;18.27;52.19;101580.41;4990666;28;109533;-60
2022/09/23 09:27:11;;;;;;;10.25;7.43;;;;;;;18.34;52.29;101581.72;4991281;28;109156;-60
2022/09/23 09:29:45;;;;;;;9.75;6.78;;;;;;;18.40;51.60;101575.97;4990708;28;124036;-60
2022/09/23 09:32:46;;;;;;;8.75;6.57;;;;;;;18.44;51.75;101571.22;4992107;28;123929;-60
2022/09/23 09:35:36;;;;;;;11.45;6.68;;;;;;;18.51;51.58;101571.69;4985407;28;109308;-60
2022/09/23 09:38:06;;;;;;;8.70;7.00;;;;;;;18.55;51.31;101562.47;4991343;28;109029;-59
2022/09/23 09:40:34;;;;;;;9.85;6.78;;;;;;;18.59;51.25;101554.13;4991482;28;124160;-59
2022/09/23 09:43:04;;;;;;;8.88;6.72;;;;;;;18.66;51.36;101559.94;4991908;28;124940;-59
2022/09/23 09:46:02;;;;;;;9.63;6.50;;;;;;;18.72;51.27;101554.13;4992304;28;109329;-59
2022/09/23 09:48:38;;;;;;;10.40;6.80;;;;;;;18.80;51.30;101546.47;4992514;28;109226;-59
2022/09/23 09:51:18;;;;;;;;;;;;;;;18.84;51.58;101541.75;4992140;28;124411;-60
2022/09/23 09:53:46;;;;;;;9.05;6.68;;;;;;;18.91;50.93;101542.19;4982106;28;123843;-60
2022/09/23 09:56:17;;;;;;;10.93;6.45;;;;;;;18.94;50.98;101536.59;4982427;28;109161;-60
2022/09/23 09:58:53;;;;;;;8.88;6.63;;;;;;;19.00;50.88;101538.84;4986343;28;109157;-60
2022/09/23 10:01:25;;;;;;;10.10;6.97;;;;;;;19.06;50.77;101535.75;4996470;28;124487;-64
2022/09/23 10:03:55;;;;;;;9.10;7.32;;;;;;;19.09;50.99;101546.28;5002745;28;122589;-60
2022/09/23 10:06:31;;;;;;;12.85;7.35;;;;;;;19.17;50.83;101538.53;4987823;28;110236;-60
2022/09/23 10:09:35;;;;;;;9.00;7.15;;;;;;;19.32;50.79;101535.75;4990440;28;110020;-60
2022/09/23 10:12:17;;;;;;;11.52;7.78;;;;;;;19.41;51.01;101540.47;4959997;28;123857;-61
2022/09/23 10:14:50;;;;;;;10.45;7.70;;;;;;;19.55;51.02;101548.41;4992942;28;125006;-61
2022/09/23 10:17:31;;;;;;;13.30;8.10;;;;;;;19.70;50.81;101540.19;4985504;28;109519;-59
2022/09/23 10:20:07;;;;;;;15.48;8.77;;;;;;;19.84;50.45;101532.03;4980294;28;109187;-59
2022/09/23 10:22:41;;;;;;;13.13;8.43;;;;;;;19.99;49.62;101536.25;4989025;28;124185;-60
2022/09/23 10:25:18;;;;;;;16.57;9.27;;;;;;;20.11;49.76;101536.31;4988066;28;123876;-60
2022/09/23 10:27:45;;;;;;;15.77;8.77;;;;;;;20.26;49.87;101537.00;4995787;28;109454;-59
2022/09/23 10:30:24;;;;;;;12.23;8.15;;;;;;;20.38;49.13;101536.97;4994435;28;109038;-60
2022/09/23 10:32:53;;;;;;;11.95;7.30;;;;;;;20.49;48.89;101532.56;4977668;28;124528;-59
2022/09/23 10:35:23;;;;;;;11.50;6.97;;;;;;;20.58;48.76;101532.72;4993191;28;123805;-59
2022/09/23 10:37:55;;;;;;;12.68;7.05;;;;;;;20.66;48.34;101534.88;4989535;28;108194;-60
2022/09/23 10:46:38;;;;;;;11.13;7.05;;;;;;;20.87;47.12;101531.50;4982600;28;123661;-60
2022/09/23 10:49:39;;;;;;;11.25;6.80;;;;;;;20.91;47.08;101527.59;4987096;28;109729;-61
2022/09/23 10:52:22;;;;;;;11.60;7.65;;;;;;;20.95;46.68;101531.78;4987101;28;108637;-61
2022/09/23 10:55:28;;;;;;;13.27;7.47;;;;;;;21.00;47.15;101533.13;4981385;28;124110;-60
2022/09/23 10:57:55;;;;;;;12.30;7.47;;;;;;;21.10;47.10;101533.25;4982138;28;123845;-60
2022/09/23 11:00:42;;;;;;;11.32;6.85;;;;;;;21.18;46.39;101525.41;4991437;28;109998;-60
2022/09/23 11:03:33;;;;;;;10.70;6.25;;;;;;;21.26;46.36;101526.66;4981787;28;109247;-60
2022/09/23 11:06:02;;;;;;;10.77;6.30;;;;;;;21.31;45.92;101519.06;4986455;28;124958;-60
2022/09/23 11:08:45;;;;;;;10.68;6.30;;;;;;;21.37;46.11;101518.56;4991432;28;124204;-60
2022/09/23 11:11:34;;;;;;;10.75;6.65;;;;;;;21.42;45.75;101519.06;4971938;28;108256;-61
2022/09/23 11:14:14;;;;;;;9.90;5.85;;;;;;;21.45;45.41;101513.44;4991583;28;108992;-60
2022/09/23 11:17:06;;;;;;;10.88;6.57;;;;;;;21.48;45.61;101510.50;4987328;28;123940;-60
2022/09/23 11:19:45;;;;;;;11.52;6.40;;;;;;;21.56;45.74;101518.81;4991230;28;124023;-61
2022/09/23 11:22:36;;;;;;;10.40;6.15;;;;;;;21.63;45.49;101507.56;4995236;28;110928;-61
2022/09/23 11:25:22;;;;;;;9.63;5.63;;;;;;;21.68;45.36;101510.72;4988751;28;109068;-61
2022/09/23 11:27:58;;;;;;;8.30;5.63;;;;;;;21.73;44.81;101505.81;4993278;28;123858;-60
2022/09/23 11:30:37;;;;;;;10.40;5.82;;;;;;;21.77;44.81;101504.56;4994358;28;123808;-60
2022/09/23 11:33:37;;;;;;;6.35;5.00;;;;;;;21.81;44.55;101503.34;4989273;28;109499;-60
2022/09/23 11:36:10;;;;;;;7.35;5.05;;;;;;;21.85;44.69;101502.13;4990743;28;109308;-60
2022/09/23 11:38:45;;;;;;;7.65;5.05;;;;;;;21.90;44.56;101489.09;4990595;28;123063;-61
2022/09/23 11:41:38;;;;;;;10.18;5.50;;;;;;;21.95;44.68;101489.59;4991866;28;124102;-60
2022/09/23 11:44:27;;;;;;;9.13;5.03;;;;;;;22.01;44.50;101490.06;4987060;28;109207;-60
2022/09/23 11:47:15;;;;;;;6.68;4.40;;;;;;;22.07;44.16;101489.53;4988677;28;108961;-60
2022/09/23 11:49:48;;;;;;;6.22;4.43;;;;;;;22.10;43.89;101494.69;4986985;28;123830;-59